createdAt,value
2018-07-22T00:00:59.409Z,12.45
2018-07-22T00:03:29.311Z,11.75
2018-07-22T00:05:58.519Z,12.00
2018-07-22T00:08:28.385Z,13.08
2018-07-22T00:10:57.967Z,13.35
2018-07-22T00:13:27.279Z,13.25
2018-07-22T00:15:56.590Z,12.70
2018-07-22T00:18:26.668Z,14.25
2018-07-22T00:20:56.279Z,14.20
2018-07-22T00:23:25.516Z,14.65
2018-07-22T00:25:54.737Z,14.43
2018-07-22T00:28:24.704Z,13.55
2018-07-22T00:30:53.733Z,13.60
2018-07-22T00:33:23.256Z,14.85
2018-07-22T00:35:53.021Z,14.80
2018-07-22T00:38:22.267Z,15.20
2018-07-22T00:40:51.810Z,18.20
2018-07-22T00:43:21.169Z,15.70
2018-07-22T00:45:50.402Z,17.77
2018-07-22T00:48:19.599Z,18.75
2018-07-22T00:50:51.843Z,15.43
2018-07-22T00:53:21.085Z,17.40
2018-07-22T00:55:50.552Z,15.30
2018-07-22T00:58:19.801Z,14.23
2018-07-22T01:00:49.129Z,15.13
2018-07-22T01:03:18.343Z,18.87
2018-07-22T01:05:48.149Z,15.55
2018-07-22T01:08:17.389Z,15.43
2018-07-22T01:10:47.544Z,16.17
2018-07-22T01:13:16.768Z,16.52
2018-07-22T01:15:45.983Z,14.25
2018-07-22T01:18:15.202Z,15.05
2018-07-22T01:20:44.584Z,17.48
2018-07-22T01:23:13.848Z,15.93
2018-07-22T01:25:43.107Z,15.28
2018-07-22T01:28:12.354Z,16.07
2018-07-22T01:30:41.758Z,16.90
2018-07-22T01:33:11.023Z,14.53
2018-07-22T01:35:39.883Z,15.35
2018-07-22T01:38:09.015Z,15.28
2018-07-22T01:40:39.570Z,14.60
2018-07-22T01:43:09.770Z,13.85
2018-07-22T01:45:38.982Z,16.67
2018-07-22T01:48:08.207Z,16.45
2018-07-22T01:50:37.650Z,14.83
2018-07-22T01:53:06.887Z,15.35
2018-07-22T01:55:36.155Z,19.15
2018-07-22T01:58:05.428Z,14.68
2018-07-22T02:00:35.240Z,16.80
2018-07-22T02:03:04.487Z,14.58
2018-07-22T02:05:34.732Z,15.20
2018-07-22T02:08:03.938Z,16.42
2018-07-22T02:10:33.843Z,18.35
2018-07-22T02:13:03.102Z,14.23
2018-07-22T02:15:32.357Z,16.93
2018-07-22T02:18:01.594Z,15.05
2018-07-22T02:20:30.839Z,16.50
2018-07-22T02:23:00.050Z,13.65
2018-07-22T02:25:29.600Z,18.10
2018-07-22T02:27:58.846Z,14.58
2018-07-22T02:30:28.238Z,15.65
2018-07-22T02:32:57.450Z,15.93
2018-07-22T02:35:26.934Z,15.93
2018-07-22T02:37:56.117Z,13.98
2018-07-22T02:40:25.424Z,16.73
2018-07-22T02:42:54.903Z,16.10
2018-07-22T02:45:24.124Z,16.27
2018-07-22T02:47:53.364Z,15.25
2018-07-22T02:50:23.693Z,13.90
2018-07-22T02:52:53.059Z,17.07
2018-07-22T02:55:23.148Z,14.00
2018-07-22T02:57:52.762Z,16.10
2018-07-22T03:00:22.166Z,16.75
2018-07-22T03:02:51.375Z,14.43
2018-07-22T03:05:20.600Z,14.75
2018-07-22T03:07:49.905Z,15.03
2018-07-22T03:10:19.544Z,14.10
2018-07-22T03:12:48.872Z,14.47
2018-07-22T03:15:18.159Z,16.32
2018-07-22T03:17:47.438Z,14.85
2018-07-22T03:20:17.733Z,13.15
2018-07-22T03:22:46.975Z,18.12
2018-07-22T03:25:16.753Z,15.38
2018-07-22T03:27:45.964Z,13.70
2018-07-22T03:30:15.371Z,16.20
2018-07-22T03:32:44.617Z,14.83
2018-07-22T03:35:14.855Z,14.90
2018-07-22T03:37:44.069Z,14.65
2018-07-22T03:40:13.369Z,15.38
2018-07-22T03:42:42.673Z,14.07
2018-07-22T03:45:11.950Z,14.55
2018-07-22T03:47:41.300Z,12.63
2018-07-22T03:50:10.575Z,13.90
2018-07-22T03:52:39.798Z,13.85
2018-07-22T03:55:09.042Z,15.53
2018-07-22T03:57:38.273Z,16.70
2018-07-22T04:00:09.728Z,15.72
2018-07-22T04:02:38.951Z,13.90
2018-07-22T04:05:08.790Z,15.00
2018-07-22T04:07:38.018Z,14.55
2018-07-22T04:10:07.447Z,17.10
2018-07-22T04:12:36.689Z,14.65
2018-07-22T04:15:06.821Z,16.77
2018-07-22T04:17:36.128Z,11.57
2018-07-22T04:20:05.752Z,14.30
2018-07-22T04:22:35.225Z,16.50
2018-07-22T04:25:04.528Z,13.93
2018-07-22T04:27:33.753Z,15.25
2018-07-22T04:30:03.289Z,15.30
2018-07-22T04:32:32.582Z,13.55
2018-07-22T04:35:01.783Z,14.10
2018-07-22T04:37:31.105Z,13.93
2018-07-22T04:40:02.554Z,14.00
2018-07-22T04:42:31.783Z,14.50
2018-07-22T04:45:01.001Z,14.75
2018-07-22T04:47:30.259Z,13.32
2018-07-22T04:50:00.506Z,15.90
2018-07-22T04:52:29.331Z,13.35
2018-07-22T04:54:58.467Z,14.00
2018-07-22T04:57:28.153Z,13.93
2018-07-22T04:59:59.422Z,12.68
2018-07-22T05:02:28.638Z,11.68
2018-07-22T05:04:57.854Z,16.17
2018-07-22T05:07:27.047Z,14.30
2018-07-22T05:09:56.375Z,16.20
2018-07-22T05:12:25.584Z,14.90
2018-07-22T05:14:55.447Z,12.73
2018-07-22T05:17:24.734Z,11.80
2018-07-22T05:20:13.021Z,14.80
2018-07-22T05:22:43.568Z,14.17
2018-07-22T05:25:12.740Z,14.40
2018-07-22T05:27:42.056Z,12.60
2018-07-22T05:30:11.426Z,13.20
2018-07-22T05:32:40.764Z,13.53
2018-07-22T05:35:09.930Z,12.57
2018-07-22T05:37:39.195Z,12.40
2018-07-22T05:40:08.500Z,13.10
2018-07-22T05:42:37.795Z,13.93
2018-07-22T05:45:07.048Z,13.70
2018-07-22T05:47:38.162Z,11.23
2018-07-22T05:50:07.806Z,13.27
2018-07-22T05:52:37.059Z,13.27
2018-07-22T05:55:06.492Z,13.60
2018-07-22T05:57:35.953Z,14.83
2018-07-22T06:00:06.915Z,13.07
2018-07-22T06:02:36.410Z,13.30
2018-07-22T06:05:06.453Z,14.80
2018-07-22T06:07:35.688Z,14.10
2018-07-22T06:10:05.894Z,11.90
2018-07-22T06:12:35.190Z,12.10
2018-07-22T06:15:05.290Z,12.93
2018-07-22T06:17:34.632Z,11.90
2018-07-22T06:20:04.648Z,14.63
2018-07-22T06:22:33.860Z,11.30
2018-07-22T06:25:03.289Z,11.03
2018-07-22T06:27:33.454Z,14.70
2018-07-22T06:30:03.144Z,11.83
2018-07-22T06:32:32.572Z,11.40
2018-07-22T06:35:01.757Z,11.17
2018-07-22T06:37:31.036Z,11.90
2018-07-22T06:40:00.433Z,10.97
2018-07-22T06:42:30.607Z,10.63
2018-07-22T06:45:00.693Z,11.33
2018-07-22T06:47:30.013Z,12.10
2018-07-22T06:50:01.008Z,12.20
2018-07-22T06:52:30.776Z,12.67
2018-07-22T06:55:00.052Z,13.33
2018-07-22T06:57:29.436Z,13.30
2018-07-22T06:59:59.060Z,11.57
2018-07-22T07:02:28.565Z,10.73
2018-07-22T07:04:57.836Z,11.97
2018-07-22T07:07:27.098Z,10.80
2018-07-22T07:09:56.467Z,10.97
2018-07-22T07:12:25.728Z,11.80
2018-07-22T07:14:57.218Z,12.63
2018-07-22T07:17:26.541Z,13.33
2018-07-22T07:19:56.495Z,11.93
2018-07-22T07:22:25.708Z,12.67
2018-07-22T07:24:55.011Z,14.00
2018-07-22T07:27:25.032Z,12.00
2018-07-22T07:29:54.940Z,14.53
2018-07-22T07:32:24.238Z,13.97
2018-07-22T07:34:53.484Z,14.23
2018-07-22T07:37:22.819Z,13.63
2018-07-22T07:39:52.678Z,13.50
2018-07-22T07:42:22.062Z,13.37
2018-07-22T07:44:51.322Z,12.77
2018-07-22T07:47:21.744Z,13.40
2018-07-22T07:49:52.418Z,13.17
2018-07-22T07:52:22.431Z,13.00
2018-07-22T07:54:51.647Z,11.30
2018-07-22T07:57:20.905Z,13.90
2018-07-22T07:59:54.831Z,14.23
2018-07-22T08:02:25.887Z,15.10
2018-07-22T08:04:55.561Z,14.83
2018-07-22T08:07:24.829Z,15.47
2018-07-22T08:09:54.225Z,13.13
2018-07-22T08:12:23.819Z,11.97
2018-07-22T08:14:53.735Z,13.07
2018-07-22T08:17:24.154Z,13.27
2018-07-22T08:19:54.423Z,13.90
2018-07-22T08:22:23.830Z,11.90
2018-07-22T08:24:53.102Z,15.27
2018-07-22T08:27:22.398Z,14.18
2018-07-22T08:29:52.042Z,14.83
2018-07-22T08:32:22.848Z,13.03
2018-07-22T08:34:52.100Z,14.00
2018-07-22T08:37:21.304Z,14.20
2018-07-22T08:39:52.374Z,15.60
2018-07-22T08:42:21.620Z,15.93
2018-07-22T08:44:50.875Z,13.90
2018-07-22T08:47:21.581Z,14.13
2018-07-22T08:49:54.882Z,13.87
2018-07-22T08:52:24.180Z,13.50
2018-07-22T08:54:53.519Z,15.70
2018-07-22T08:57:22.944Z,15.53
2018-07-22T08:59:52.760Z,15.00
2018-07-22T09:02:23.810Z,16.42
2018-07-22T09:04:53.564Z,16.60
2018-07-22T09:07:23.335Z,13.67
2018-07-22T09:09:52.786Z,15.50
2018-07-22T09:12:23.670Z,12.57
2018-07-22T09:14:53.016Z,14.23
2018-07-22T09:17:23.820Z,14.53
2018-07-22T09:19:53.403Z,13.87
2018-07-22T09:22:25.295Z,13.70
2018-07-22T09:24:55.580Z,14.27
2018-07-22T09:27:25.070Z,14.07
2018-07-22T09:29:58.186Z,14.53
2018-07-22T09:32:27.760Z,13.03
2018-07-22T09:34:58.057Z,12.90
2018-07-22T09:37:27.566Z,12.30
2018-07-22T09:39:57.636Z,13.20
2018-07-22T09:42:27.164Z,12.93
2018-07-22T09:44:58.547Z,14.30
2018-07-22T09:47:28.553Z,12.67
2018-07-22T09:49:59.417Z,13.43
2018-07-22T09:52:28.668Z,13.50
2018-07-22T09:54:58.025Z,13.53
2018-07-22T09:57:29.850Z,13.60
2018-07-22T10:00:03.793Z,11.23
2018-07-22T10:02:33.456Z,12.57
2018-07-22T10:05:02.910Z,13.73
2018-07-22T10:07:32.464Z,11.87
2018-07-22T10:10:02.741Z,12.90
2018-07-22T10:12:32.398Z,10.90
2018-07-22T10:15:02.026Z,11.40
2018-07-22T10:17:32.207Z,10.60
2018-07-22T10:20:01.869Z,11.33
2018-07-22T10:22:32.595Z,11.87
2018-07-22T10:25:02.036Z,12.00
2018-07-22T10:27:31.367Z,11.00
2018-07-22T10:30:01.577Z,10.40
2018-07-22T10:32:30.889Z,13.13
2018-07-22T10:35:00.183Z,12.23
2018-07-22T10:37:29.915Z,10.80
2018-07-22T10:39:59.503Z,12.33
2018-07-22T10:42:28.802Z,10.23
2018-07-22T10:44:58.313Z,10.00
2018-07-22T10:47:27.609Z,11.30
2018-07-22T10:49:56.931Z,10.40
2018-07-22T10:52:26.348Z,10.93
2018-07-22T10:54:56.480Z,10.43
2018-07-22T10:57:26.071Z,10.67
2018-07-22T10:59:55.345Z,10.80
2018-07-22T11:02:25.510Z,9.80
2018-07-22T11:04:54.787Z,11.60
2018-07-22T11:07:24.188Z,10.20
2018-07-22T11:09:54.108Z,11.50
2018-07-22T11:12:23.408Z,11.30
2018-07-22T11:14:52.800Z,11.60
2018-07-22T11:17:24.052Z,11.07
2018-07-22T11:19:54.522Z,11.97
2018-07-22T11:22:23.849Z,12.17
2018-07-22T11:24:53.148Z,12.33
2018-07-22T11:27:22.512Z,12.40
2018-07-22T11:29:51.946Z,12.63
2018-07-22T11:32:23.418Z,11.43
2018-07-22T11:34:53.080Z,11.63
2018-07-22T11:37:22.735Z,13.23
2018-07-22T11:39:52.677Z,13.40
2018-07-22T11:42:22.216Z,11.23
2018-07-22T11:44:51.924Z,12.83
2018-07-22T11:47:24.045Z,12.90
2018-07-22T11:49:54.796Z,12.70
2018-07-22T11:52:24.495Z,11.10
2018-07-22T11:54:54.226Z,12.20
2018-07-22T11:57:23.529Z,12.40
2018-07-22T11:59:53.406Z,12.30
2018-07-22T12:02:26.376Z,13.23
2018-07-22T12:04:55.775Z,14.20
2018-07-22T12:07:25.334Z,14.70
2018-07-22T12:09:54.787Z,15.20
2018-07-22T12:12:24.093Z,14.20
2018-07-22T12:14:53.432Z,14.63
2018-07-22T12:17:25.738Z,14.20
2018-07-22T12:19:58.740Z,13.37
2018-07-22T12:22:31.793Z,15.83
2018-07-22T12:25:01.948Z,13.10
2018-07-22T12:27:31.286Z,14.60
2018-07-22T12:30:00.918Z,14.67
2018-07-22T12:32:30.668Z,16.10
2018-07-22T12:34:59.960Z,15.13
2018-07-22T12:37:29.249Z,17.20
2018-07-22T12:40:03.915Z,16.17
2018-07-22T12:42:34.267Z,16.03
2018-07-22T12:45:03.954Z,15.87
2018-07-22T12:47:33.222Z,16.67
2018-07-22T12:50:02.975Z,15.00
2018-07-22T12:52:32.215Z,16.10
2018-07-22T12:55:01.576Z,16.50
2018-07-22T12:57:30.803Z,16.23
2018-07-22T13:00:05.148Z,17.10
2018-07-22T13:02:51.485Z,15.10
2018-07-22T13:05:22.570Z,15.10
2018-07-22T13:07:51.991Z,14.50
2018-07-22T13:10:21.334Z,14.43
2018-07-22T13:12:50.584Z,14.87
2018-07-22T13:15:19.881Z,15.90
2018-07-22T13:17:49.124Z,15.03
2018-07-22T13:20:18.436Z,13.30
2018-07-22T13:22:47.695Z,14.37
2018-07-22T13:25:16.907Z,19.03
2018-07-22T13:27:46.140Z,13.90
2018-07-22T13:30:17.819Z,15.80
2018-07-22T13:32:47.070Z,16.40
2018-07-22T13:35:16.477Z,15.97
2018-07-22T13:37:45.662Z,17.03
2018-07-22T13:40:18.322Z,16.60
2018-07-22T13:42:47.670Z,17.00
2018-07-22T13:45:16.957Z,14.33
2018-07-22T13:47:46.191Z,15.70
2018-07-22T13:50:15.614Z,17.53
2018-07-22T13:52:45.653Z,15.97
2018-07-22T13:55:15.589Z,14.77
2018-07-22T13:57:44.814Z,16.70
2018-07-22T14:00:14.262Z,16.23
2018-07-22T14:02:43.483Z,17.27
2018-07-22T14:05:12.688Z,15.67
2018-07-22T14:07:41.893Z,18.63
2018-07-22T14:10:12.669Z,17.10
2018-07-22T14:12:41.909Z,19.37
2018-07-22T14:15:11.100Z,18.50
2018-07-22T14:17:40.403Z,18.47
2018-07-22T14:20:13.138Z,17.90
2018-07-22T14:22:42.403Z,19.07
2018-07-22T14:25:11.693Z,20.80
2018-07-22T14:27:40.910Z,22.60
2018-07-22T14:30:10.329Z,23.87
2018-07-22T14:32:39.995Z,41.93
2018-07-22T14:35:13.932Z,11.63
2018-07-22T14:37:43.189Z,10.73
2018-07-22T14:40:12.477Z,11.70
2018-07-22T14:42:41.696Z,14.50
2018-07-22T14:45:11.005Z,19.40
2018-07-22T14:47:40.274Z,13.83
2018-07-22T14:50:10.461Z,20.23
2018-07-22T14:52:39.744Z,20.23
2018-07-22T14:55:09.835Z,18.07
2018-07-22T14:57:39.464Z,17.47
2018-07-22T15:00:09.116Z,18.50
2018-07-22T15:02:39.835Z,17.23
2018-07-22T15:05:09.113Z,22.40
2018-07-22T15:07:38.396Z,21.53
2018-07-22T15:10:08.776Z,19.10
2018-07-22T15:12:38.082Z,21.63
2018-07-22T15:15:07.376Z,23.47
2018-07-22T15:17:36.738Z,25.40
2018-07-22T15:20:06.797Z,21.87
2018-07-22T15:22:36.080Z,19.53
2018-07-22T15:25:06.160Z,22.50
2018-07-22T15:27:36.154Z,21.50
2018-07-22T15:30:06.017Z,20.33
2018-07-22T15:32:35.239Z,18.17
2018-07-22T15:35:06.011Z,17.20
2018-07-22T15:37:35.364Z,18.20
2018-07-22T15:40:05.296Z,18.60
2018-07-22T15:42:34.654Z,17.83
2018-07-22T15:45:05.789Z,18.17
2018-07-22T15:47:35.203Z,17.20
2018-07-22T15:50:04.627Z,16.33
2018-07-22T15:52:33.930Z,14.40
2018-07-22T15:55:03.551Z,15.37
2018-07-22T15:57:32.766Z,18.63
2018-07-22T16:00:02.189Z,17.73
2018-07-22T16:02:31.554Z,17.70
2018-07-22T16:05:00.813Z,18.37
2018-07-22T16:07:29.623Z,19.50
2018-07-22T16:09:59.107Z,18.43
2018-07-22T16:12:28.320Z,22.90
2018-07-22T16:14:57.719Z,25.30
2018-07-22T16:17:29.548Z,20.67
2018-07-22T16:19:59.918Z,20.07
2018-07-22T16:22:29.827Z,18.23
2018-07-22T16:24:59.640Z,17.60
2018-07-22T16:27:29.804Z,20.57
2018-07-22T16:29:59.253Z,18.17
2018-07-22T16:32:30.127Z,19.10
2018-07-22T16:34:59.459Z,19.47
2018-07-22T16:37:28.716Z,17.70
2018-07-22T16:39:58.262Z,18.63
2018-07-22T16:42:27.538Z,17.97
2018-07-22T16:44:56.898Z,17.90
2018-07-22T16:47:28.219Z,18.00
2018-07-22T16:50:01.900Z,18.50
2018-07-22T16:52:31.986Z,19.40
2018-07-22T16:55:04.321Z,21.50
2018-07-22T16:57:39.911Z,22.10
2018-07-22T17:00:12.212Z,21.60
2018-07-22T17:02:41.442Z,19.80
2018-07-22T17:05:10.685Z,19.23
2018-07-22T17:07:39.937Z,18.67
2018-07-22T17:10:09.480Z,22.17
2018-07-22T17:12:39.562Z,19.63
2018-07-22T17:15:08.854Z,21.80
2018-07-22T17:17:38.203Z,20.33
2018-07-22T17:20:07.735Z,22.40
2018-07-22T17:22:37.381Z,19.60
2018-07-22T17:25:06.738Z,21.50
2018-07-22T17:27:36.555Z,17.70
2018-07-22T17:30:11.353Z,16.00
2018-07-22T17:32:41.612Z,17.10
2018-07-22T17:35:12.503Z,19.07
2018-07-22T17:37:41.991Z,17.53
2018-07-22T17:40:13.865Z,16.83
2018-07-22T17:42:44.654Z,15.03
2018-07-22T17:45:13.955Z,17.20
2018-07-22T17:47:43.303Z,17.03
2018-07-22T17:50:14.360Z,18.60
2018-07-22T17:52:44.875Z,16.13
2018-07-22T17:55:14.192Z,17.40
2018-07-22T17:57:43.622Z,17.77
2018-07-22T18:00:14.122Z,20.93
2018-07-22T18:02:49.332Z,17.97
2018-07-22T18:05:18.660Z,19.63
2018-07-22T18:07:50.191Z,21.37
2018-07-22T18:10:19.414Z,20.50
2018-07-22T18:12:48.853Z,21.60
2018-07-22T18:15:18.144Z,19.50
2018-07-22T18:17:48.339Z,22.17
2018-07-22T18:20:19.475Z,21.70
2018-07-22T18:22:48.752Z,20.67
2018-07-22T18:25:18.010Z,19.33
2018-07-22T18:27:47.504Z,20.65
2018-07-22T18:30:17.280Z,20.30
2018-07-22T18:32:46.567Z,20.00
2018-07-22T18:35:15.858Z,21.40
2018-07-22T18:37:45.654Z,21.43
2018-07-22T18:40:17.247Z,20.88
2018-07-22T18:42:47.261Z,21.40
2018-07-22T18:45:17.186Z,19.27
2018-07-22T18:47:46.747Z,19.48
2018-07-22T18:50:16.378Z,17.40
2018-07-22T18:52:45.762Z,16.87
2018-07-22T18:55:16.159Z,19.05
2018-07-22T18:57:45.903Z,19.50
2018-07-22T19:00:15.717Z,18.62
2018-07-22T19:02:45.402Z,18.00
2018-07-22T19:05:15.768Z,20.90
2018-07-22T19:07:46.481Z,19.82
2018-07-22T19:10:16.763Z,18.43
2018-07-22T19:12:46.526Z,17.13
2018-07-22T19:15:16.162Z,17.27
2018-07-22T19:17:46.108Z,16.97
2018-07-22T19:20:19.808Z,17.35
2018-07-22T19:22:51.820Z,18.02
2018-07-22T19:25:21.569Z,18.10
2018-07-22T19:27:51.428Z,18.90
2018-07-22T19:30:22.293Z,20.08
2018-07-22T19:32:52.152Z,18.42
2018-07-22T19:35:22.095Z,18.07
2018-07-22T19:37:51.849Z,21.17
2018-07-22T19:40:21.908Z,19.73
2018-07-22T19:42:52.243Z,21.17
2018-07-22T19:45:23.154Z,19.12
2018-07-22T19:47:53.275Z,17.80
2018-07-22T19:50:23.940Z,17.67
2018-07-22T19:52:53.942Z,18.17
2018-07-22T19:55:24.416Z,16.67
2018-07-22T19:57:54.171Z,19.17
2018-07-22T20:00:24.663Z,17.17
2018-07-22T20:02:55.893Z,17.75
2018-07-22T20:05:26.238Z,17.15
2018-07-22T20:07:56.432Z,16.87
2018-07-22T20:10:26.285Z,16.52
2018-07-22T20:12:57.354Z,17.92
2018-07-22T20:15:26.905Z,16.82
2018-07-22T20:17:56.456Z,19.35
2018-07-22T20:20:29.398Z,19.27
2018-07-22T20:22:59.466Z,22.52
2018-07-22T20:25:30.638Z,19.17
2018-07-22T20:28:00.560Z,19.23
2018-07-22T20:30:31.150Z,18.40
2018-07-22T20:33:00.407Z,17.75
2018-07-22T20:35:30.317Z,15.80
2018-07-22T20:37:59.867Z,17.00
2018-07-22T20:40:36.496Z,17.92
2018-07-22T20:43:07.283Z,19.60
2018-07-22T20:45:43.696Z,22.27
2018-07-22T20:48:14.900Z,19.15
2018-07-22T20:50:44.270Z,19.25
2018-07-22T20:53:13.996Z,19.75
2018-07-22T20:55:43.350Z,20.10
2018-07-22T20:58:13.875Z,19.37
2018-07-22T21:00:45.275Z,19.07
2018-07-22T21:03:14.521Z,20.35
2018-07-22T21:05:43.777Z,20.65
2018-07-22T21:08:13.036Z,22.50
2018-07-22T21:10:42.404Z,20.30
2018-07-22T21:13:22.479Z,21.87
2018-07-22T21:15:52.213Z,21.33
2018-07-22T21:18:21.468Z,21.52
2018-07-22T21:20:51.418Z,20.57
2018-07-22T21:23:21.109Z,20.72
2018-07-22T21:25:50.693Z,20.48
2018-07-22T21:28:19.908Z,20.40
2018-07-22T21:30:49.149Z,19.37
2018-07-22T21:33:20.099Z,20.70
2018-07-22T21:35:49.334Z,19.95
2018-07-22T21:38:18.781Z,20.25
2018-07-22T21:40:48.407Z,20.05
2018-07-22T21:43:17.978Z,20.62
2018-07-22T21:45:47.401Z,21.48
2018-07-22T21:48:17.320Z,20.45
2018-07-22T21:50:46.618Z,19.70
2018-07-22T21:53:16.150Z,17.62
2018-07-22T21:55:45.958Z,19.70
2018-07-22T21:58:15.180Z,18.85
2018-07-22T22:00:45.384Z,19.57
2018-07-22T22:03:14.660Z,19.10
2018-07-22T22:05:43.906Z,20.77
2018-07-22T22:08:14.338Z,20.35
2018-07-22T22:10:43.607Z,20.02
2018-07-22T22:13:13.095Z,19.40
2018-07-22T22:15:42.353Z,19.17
2018-07-22T22:18:11.583Z,18.45
2018-07-22T22:20:42.054Z,17.48
2018-07-22T22:23:11.292Z,18.32
2018-07-22T22:25:40.565Z,15.00
2018-07-22T22:28:10.014Z,17.65
2018-07-22T22:30:39.581Z,17.00
2018-07-22T22:33:08.819Z,17.25
2018-07-22T22:35:38.850Z,19.65
2018-07-22T22:38:08.125Z,17.77
2018-07-22T22:40:37.027Z,15.83
2018-07-22T22:43:06.352Z,16.37
2018-07-22T22:45:35.717Z,17.00
2018-07-22T22:48:04.903Z,15.78
2018-07-22T22:50:35.650Z,17.00
2018-07-22T22:53:04.485Z,17.17
2018-07-22T22:55:33.619Z,15.83
2018-07-22T22:58:13.986Z,14.18
2018-07-22T23:00:43.198Z,16.95
2018-07-22T23:03:12.411Z,19.10
2018-07-22T23:05:41.666Z,28.45
2018-07-22T23:08:10.885Z,20.30
2018-07-22T23:10:40.134Z,19.17
2018-07-22T23:13:09.451Z,18.62
2018-07-22T23:15:38.701Z,17.75
2018-07-22T23:18:07.960Z,17.05
2018-07-22T23:20:37.861Z,16.35
2018-07-22T23:23:07.099Z,16.52
2018-07-22T23:25:37.948Z,18.32
2018-07-22T23:28:07.218Z,15.38
2018-07-22T23:30:37.721Z,17.15
2018-07-22T23:33:06.946Z,18.25
2018-07-22T23:35:36.147Z,16.02
2018-07-22T23:38:05.554Z,16.97
2018-07-22T23:40:36.109Z,18.02
2018-07-22T23:43:06.123Z,17.52
2018-07-22T23:45:35.312Z,20.55
2018-07-22T23:48:05.156Z,35.68
2018-07-22T23:50:35.794Z,20.55
2018-07-22T23:53:05.061Z,20.57
2018-07-22T23:55:34.849Z,20.92
2018-07-22T23:58:04.064Z,19.30
